createdAt,value
2017-08-02T00:00:46.786Z,0
2017-08-02T00:01:46.827Z,0
2017-08-02T00:02:46.847Z,0
2017-08-02T00:03:47.188Z,0
2017-08-02T00:04:46.912Z,0
2017-08-02T00:05:46.923Z,0
2017-08-02T00:06:47.276Z,0
2017-08-02T00:07:46.725Z,0
2017-08-02T00:08:47.018Z,0
2017-08-02T00:09:47.373Z,0
2017-08-02T00:10:47.067Z,0
2017-08-02T00:11:47.411Z,0
2017-08-02T00:12:47.445Z,0
2017-08-02T00:13:47.159Z,0
2017-08-02T00:14:47.511Z,0
2017-08-02T00:15:46.900Z,0
2017-08-02T00:16:47.551Z,0
2017-08-02T00:17:47.720Z,0
2017-08-02T00:18:47.626Z,0
2017-08-02T00:19:47.639Z,0
2017-08-02T00:20:47.671Z,0
2017-08-02T00:21:47.698Z,0
2017-08-02T00:22:47.727Z,0
2017-08-02T00:23:47.122Z,0
2017-08-02T00:24:47.468Z,0
2017-08-02T00:25:47.821Z,0
2017-08-02T00:26:47.537Z,0
2017-08-02T00:27:47.889Z,0
2017-08-02T00:28:47.582Z,0
2017-08-02T00:29:47.622Z,0
2017-08-02T00:30:47.646Z,0
2017-08-02T00:31:47.671Z,0
2017-08-02T00:32:47.700Z,0
2017-08-02T00:33:48.082Z,0
2017-08-02T00:34:48.170Z,0
2017-08-02T00:35:47.866Z,0
2017-08-02T00:36:48.132Z,0
2017-08-02T00:37:48.166Z,0
2017-08-02T00:38:48.179Z,0
2017-08-02T00:39:48.008Z,0
2017-08-02T00:40:48.234Z,0
2017-08-02T00:41:47.951Z,0
2017-08-02T00:42:48.384Z,0
2017-08-02T00:43:48.523Z,0
2017-08-02T00:44:48.547Z,0
2017-08-02T00:45:48.223Z,0
2017-08-02T00:46:48.098Z,0
2017-08-02T00:47:48.121Z,0
2017-08-02T00:48:48.272Z,0
2017-08-02T00:49:48.496Z,0
2017-08-02T00:50:48.213Z,0
2017-08-02T00:51:48.555Z,0
2017-08-02T00:52:48.589Z,0
2017-08-02T00:53:48.616Z,0
2017-08-02T00:54:48.637Z,0
2017-08-02T00:55:48.668Z,0
2017-08-02T00:56:48.068Z,0
2017-08-02T00:57:48.089Z,0
2017-08-02T00:58:48.119Z,0
2017-08-02T00:59:48.460Z,0
2017-08-02T01:00:48.495Z,0
2017-08-02T01:01:48.842Z,0
2017-08-02T01:02:48.865Z,0
2017-08-02T01:03:48.889Z,0
2017-08-02T01:04:48.938Z,0
2017-08-02T01:05:48.941Z,0
2017-08-02T01:06:48.770Z,0
2017-08-02T01:07:49.005Z,0
2017-08-02T01:08:49.037Z,0
2017-08-02T01:09:49.188Z,0
2017-08-02T01:10:48.831Z,0
2017-08-02T01:11:48.803Z,0
2017-08-02T01:12:49.144Z,0
2017-08-02T01:13:49.174Z,0
2017-08-02T01:14:49.207Z,0
2017-08-02T01:15:49.252Z,0
2017-08-02T01:16:49.252Z,0
2017-08-02T01:17:49.288Z,0
2017-08-02T01:18:49.314Z,0
2017-08-02T01:19:49.016Z,0
2017-08-02T01:20:49.056Z,0
2017-08-02T01:21:49.076Z,0
2017-08-02T01:22:49.117Z,0
2017-08-02T01:23:49.553Z,0
2017-08-02T01:24:49.603Z,0
2017-08-02T01:25:49.529Z,0
2017-08-02T01:26:49.651Z,0
2017-08-02T01:27:49.598Z,0
2017-08-02T01:28:49.412Z,0
2017-08-02T01:29:49.160Z,0
2017-08-02T01:30:49.453Z,0
2017-08-02T01:31:49.673Z,0
2017-08-02T01:32:49.709Z,0
2017-08-02T01:33:49.414Z,0
2017-08-02T01:34:49.766Z,0
2017-08-02T01:35:49.794Z,0
2017-08-02T01:36:49.603Z,0
2017-08-02T01:37:49.521Z,0
2017-08-02T01:38:49.935Z,0
2017-08-02T01:39:50.081Z,0
2017-08-02T01:40:50.065Z,0
2017-08-02T01:41:51.223Z,0
2017-08-02T01:42:49.995Z,0
2017-08-02T01:43:50.080Z,0
2017-08-02T01:44:49.733Z,0
2017-08-02T01:45:50.076Z,0
2017-08-02T01:46:50.451Z,0
2017-08-02T01:47:50.026Z,0
2017-08-02T01:48:50.144Z,0
2017-08-02T01:49:50.284Z,0
2017-08-02T01:50:49.881Z,0
2017-08-02T01:51:50.235Z,0
2017-08-02T01:52:50.039Z,0
2017-08-02T01:53:49.961Z,0
2017-08-02T01:54:50.366Z,0
2017-08-02T01:55:50.335Z,0
2017-08-02T01:56:50.810Z,0
2017-08-02T01:57:50.084Z,0
2017-08-02T01:58:50.418Z,0
2017-08-02T01:59:50.571Z,0
2017-08-02T02:00:50.498Z,0
2017-08-02T02:01:50.190Z,0
2017-08-02T02:02:50.523Z,0
2017-08-02T02:03:50.566Z,0
2017-08-02T02:04:50.850Z,0
2017-08-02T02:05:50.752Z,0
2017-08-02T02:06:49.691Z,0
2017-08-02T02:07:50.670Z,0
2017-08-02T02:08:50.588Z,0
2017-08-02T02:09:50.718Z,0
2017-08-02T02:10:50.584Z,0
2017-08-02T02:11:50.921Z,0
2017-08-02T02:12:50.918Z,0
2017-08-02T02:13:50.572Z,0
2017-08-02T02:14:50.965Z,0
2017-08-02T02:15:50.889Z,0
2017-08-02T02:16:50.905Z,0
2017-08-02T02:17:51.034Z,0
2017-08-02T02:18:51.036Z,0
2017-08-02T02:19:51.078Z,0
2017-08-02T02:20:51.032Z,0
2017-08-02T02:21:51.056Z,0
2017-08-02T02:22:50.766Z,0
2017-08-02T02:23:51.113Z,0
2017-08-02T02:24:50.826Z,0
2017-08-02T02:25:50.522Z,0
2017-08-02T02:26:50.879Z,0
2017-08-02T02:27:51.222Z,0
2017-08-02T02:28:50.920Z,0
2017-08-02T02:29:51.260Z,0
2017-08-02T02:30:51.291Z,0
2017-08-02T02:31:51.320Z,0
2017-08-02T02:32:51.033Z,0
2017-08-02T02:33:51.066Z,0
2017-08-02T02:34:51.139Z,0
2017-08-02T02:35:51.435Z,0
2017-08-02T02:36:50.942Z,0
2017-08-02T02:37:51.175Z,0
2017-08-02T02:38:50.573Z,0
2017-08-02T02:39:51.533Z,0
2017-08-02T02:40:51.279Z,0
2017-08-02T02:41:51.395Z,0
2017-08-02T02:42:51.086Z,0
2017-08-02T02:43:51.331Z,0
2017-08-02T02:44:51.362Z,0
2017-08-02T02:45:51.404Z,0
2017-08-02T02:46:51.734Z,0
2017-08-02T02:47:51.764Z,0
2017-08-02T02:48:51.786Z,0
2017-08-02T02:49:51.819Z,0
2017-08-02T02:50:51.217Z,0
2017-08-02T02:51:51.866Z,0
2017-08-02T02:52:51.264Z,0
2017-08-02T02:53:51.938Z,0
2017-08-02T02:54:51.940Z,0
2017-08-02T02:55:51.653Z,0
2017-08-02T02:56:51.363Z,0
2017-08-02T02:57:52.030Z,0
2017-08-02T02:58:52.061Z,0
2017-08-02T02:59:51.766Z,0
2017-08-02T03:00:52.107Z,0
2017-08-02T03:01:52.126Z,0
2017-08-02T03:02:52.165Z,0
2017-08-02T03:03:52.184Z,0
2017-08-02T03:04:52.212Z,0
2017-08-02T03:05:52.239Z,0
2017-08-02T03:06:52.029Z,0
2017-08-02T03:07:52.302Z,0
2017-08-02T03:08:52.004Z,0
2017-08-02T03:09:52.202Z,0
2017-08-02T03:10:52.071Z,0
2017-08-02T03:11:52.100Z,0
2017-08-02T03:12:52.117Z,0
2017-08-02T03:13:52.151Z,0
2017-08-02T03:14:52.163Z,0
2017-08-02T03:15:52.531Z,0
2017-08-02T03:16:52.215Z,0
2017-08-02T03:17:52.561Z,0
2017-08-02T03:18:52.590Z,0
2017-08-02T03:19:52.302Z,0
2017-08-02T03:20:52.357Z,0
2017-08-02T03:21:52.769Z,0
2017-08-02T03:22:52.688Z,0
2017-08-02T03:23:52.506Z,0
2017-08-02T03:24:52.447Z,0
2017-08-02T03:25:52.791Z,0
2017-08-02T03:26:52.491Z,0
2017-08-02T03:27:52.519Z,0
2017-08-02T03:28:52.957Z,0
2017-08-02T03:29:52.877Z,0
2017-08-02T03:30:52.924Z,0
2017-08-02T03:31:52.728Z,0
2017-08-02T03:32:52.749Z,0
2017-08-02T03:33:52.671Z,0
2017-08-02T03:34:52.697Z,0
2017-08-02T03:35:52.410Z,0
2017-08-02T03:36:52.447Z,0
2017-08-02T03:37:53.105Z,0
2017-08-02T03:38:52.800Z,0
2017-08-02T03:39:53.158Z,0
2017-08-02T03:40:52.566Z,0
2017-08-02T03:41:52.964Z,0
2017-08-02T03:42:53.220Z,0
2017-08-02T03:43:52.830Z,0
2017-08-02T03:44:52.970Z,0
2017-08-02T03:45:53.109Z,0
2017-08-02T03:46:52.790Z,0
2017-08-02T03:47:53.466Z,0
2017-08-02T03:48:52.824Z,0
2017-08-02T03:49:53.097Z,0
2017-08-02T03:50:52.974Z,0
2017-08-02T03:51:53.486Z,0
2017-08-02T03:52:53.174Z,0
2017-08-02T03:53:53.519Z,0
2017-08-02T03:54:53.550Z,0
2017-08-02T03:55:52.621Z,0
2017-08-02T03:56:53.274Z,0
2017-08-02T03:57:53.613Z,0
2017-08-02T03:58:53.647Z,0
2017-08-02T03:59:53.696Z,0
2017-08-02T04:00:53.705Z,0
2017-08-02T04:01:53.410Z,0
2017-08-02T04:02:53.446Z,0
2017-08-02T04:03:53.781Z,0
2017-08-02T04:04:53.815Z,0
2017-08-02T04:05:53.831Z,0
2017-08-02T04:06:53.231Z,0
2017-08-02T04:07:53.576Z,0
2017-08-02T04:08:53.907Z,0
2017-08-02T04:09:53.624Z,0
2017-08-02T04:10:53.037Z,0
2017-08-02T04:11:54.082Z,0
2017-08-02T04:12:53.719Z,0
2017-08-02T04:13:53.416Z,0
2017-08-02T04:14:53.463Z,0
2017-08-02T04:15:54.106Z,0
2017-08-02T04:16:54.143Z,0
2017-08-02T04:17:53.833Z,5
2017-08-02T04:18:53.889Z,0
2017-08-02T04:19:53.881Z,0
2017-08-02T04:20:53.930Z,0
2017-08-02T04:21:53.629Z,0
2017-08-02T04:22:53.639Z,0
2017-08-02T04:23:53.981Z,0
2017-08-02T04:24:54.405Z,0
2017-08-02T04:25:54.123Z,0
2017-08-02T04:26:54.440Z,0
2017-08-02T04:27:54.091Z,0
2017-08-02T04:28:53.799Z,0
2017-08-02T04:29:54.143Z,0
2017-08-02T04:30:54.517Z,0
2017-08-02T04:31:54.197Z,0
2017-08-02T04:32:54.549Z,0
2017-08-02T04:33:54.026Z,0
2017-08-02T04:34:54.594Z,0
2017-08-02T04:35:54.393Z,0
2017-08-02T04:36:54.415Z,0
2017-08-02T04:37:54.427Z,0
2017-08-02T04:38:54.705Z,0
2017-08-02T04:39:54.724Z,0
2017-08-02T04:40:54.440Z,0
2017-08-02T04:41:54.465Z,5
2017-08-02T04:42:54.804Z,5
2017-08-02T04:43:54.823Z,5
2017-08-02T04:44:54.546Z,5
2017-08-02T04:45:53.938Z,5
2017-08-02T04:46:54.907Z,0
2017-08-02T04:47:54.932Z,5
2017-08-02T04:48:54.962Z,5
2017-08-02T04:49:54.982Z,5
2017-08-02T04:50:55.032Z,5
2017-08-02T04:51:55.038Z,5
2017-08-02T04:52:55.095Z,5
2017-08-02T04:53:55.126Z,5
2017-08-02T04:54:54.804Z,5
2017-08-02T04:55:55.159Z,5
2017-08-02T04:56:55.180Z,5
2017-08-02T04:57:55.216Z,5
2017-08-02T04:58:54.910Z,5
2017-08-02T04:59:55.247Z,5
2017-08-02T05:00:54.962Z,5
2017-08-02T05:01:54.993Z,5
2017-08-02T05:02:55.325Z,5
2017-08-02T05:03:55.351Z,5
2017-08-02T05:04:55.381Z,5
2017-08-02T05:05:55.079Z,5
2017-08-02T05:06:55.127Z,5
2017-08-02T05:07:55.141Z,10
2017-08-02T05:08:55.486Z,10
2017-08-02T05:09:55.189Z,10
2017-08-02T05:10:54.909Z,10
2017-08-02T05:11:54.925Z,10
2017-08-02T05:12:55.277Z,10
2017-08-02T05:13:55.290Z,5
2017-08-02T05:14:55.336Z,5
2017-08-02T05:15:55.350Z,10
2017-08-02T05:16:55.061Z,5
2017-08-02T05:17:55.397Z,5
2017-08-02T05:18:55.731Z,10
2017-08-02T05:19:55.139Z,10
2017-08-02T05:20:55.817Z,10
2017-08-02T05:21:55.512Z,10
2017-08-02T05:22:55.861Z,10
2017-08-02T05:23:55.648Z,10
2017-08-02T05:24:55.919Z,10
2017-08-02T05:25:55.299Z,10
2017-08-02T05:26:55.632Z,5
2017-08-02T05:27:55.655Z,5
2017-08-02T05:28:55.374Z,10
2017-08-02T05:29:56.037Z,10
2017-08-02T05:30:55.747Z,10
2017-08-02T05:31:56.089Z,10
2017-08-02T05:32:55.800Z,10
2017-08-02T05:33:55.818Z,10
2017-08-02T05:34:55.213Z,10
2017-08-02T05:35:56.262Z,15
2017-08-02T05:36:55.896Z,10
2017-08-02T05:37:56.250Z,10
2017-08-02T05:38:56.376Z,10
2017-08-02T05:39:56.055Z,10
2017-08-02T05:40:56.319Z,10
2017-08-02T05:41:55.722Z,10
2017-08-02T05:42:55.748Z,10
2017-08-02T05:43:56.087Z,10
2017-08-02T05:44:56.568Z,5
2017-08-02T05:45:56.451Z,5
2017-08-02T05:46:56.501Z,5
2017-08-02T05:47:56.184Z,5
2017-08-02T05:48:56.703Z,5
2017-08-02T05:49:56.239Z,5
2017-08-02T05:50:56.579Z,5
2017-08-02T05:51:55.972Z,5
2017-08-02T05:52:56.635Z,5
2017-08-02T05:53:56.682Z,10
2017-08-02T05:54:56.677Z,10
2017-08-02T05:55:56.082Z,10
2017-08-02T05:56:56.778Z,10
2017-08-02T05:57:56.775Z,10
2017-08-02T05:58:56.784Z,15
2017-08-02T05:59:56.822Z,15
2017-08-02T06:00:56.512Z,15
2017-08-02T06:01:56.402Z,15
2017-08-02T06:02:55.947Z,15
2017-08-02T06:03:56.596Z,15
2017-08-02T06:04:56.627Z,20
2017-08-02T06:05:56.975Z,20
2017-08-02T06:06:57.007Z,20
2017-08-02T06:07:56.419Z,20
2017-08-02T06:08:56.787Z,20
2017-08-02T06:09:57.087Z,20
2017-08-02T06:10:56.790Z,20
2017-08-02T06:11:57.132Z,25
2017-08-02T06:12:57.156Z,25
2017-08-02T06:13:57.183Z,25
2017-08-02T06:14:56.887Z,25
2017-08-02T06:15:57.228Z,25
2017-08-02T06:16:56.951Z,25
2017-08-02T06:17:56.966Z,25
2017-08-02T06:18:56.993Z,25
2017-08-02T06:19:57.029Z,25
2017-08-02T06:20:57.360Z,25
2017-08-02T06:21:57.393Z,25
2017-08-02T06:22:57.097Z,25
2017-08-02T06:23:57.126Z,25
2017-08-02T06:24:57.168Z,25
2017-08-02T06:25:56.864Z,25
2017-08-02T06:26:57.506Z,25
2017-08-02T06:27:57.008Z,25
2017-08-02T06:28:57.581Z,25
2017-08-02T06:29:57.499Z,25
2017-08-02T06:30:57.502Z,25
2017-08-02T06:31:57.723Z,25
2017-08-02T06:32:57.421Z,25
2017-08-02T06:33:57.742Z,25
2017-08-02T06:34:57.732Z,25
2017-08-02T06:35:57.750Z,25
2017-08-02T06:36:57.781Z,25
2017-08-02T06:37:57.497Z,25
2017-08-02T06:38:57.522Z,25
2017-08-02T06:39:57.860Z,25
2017-08-02T06:40:57.662Z,25
2017-08-02T06:41:58.004Z,25
2017-08-02T06:42:57.621Z,25
2017-08-02T06:43:57.655Z,25
2017-08-02T06:44:57.681Z,25
2017-08-02T06:45:57.708Z,25
2017-08-02T06:46:58.149Z,25
2017-08-02T06:47:58.092Z,25
2017-08-02T06:48:58.110Z,25
2017-08-02T06:49:57.491Z,25
2017-08-02T06:50:57.841Z,20
2017-08-02T06:51:58.009Z,20
2017-08-02T06:52:57.897Z,20
2017-08-02T06:53:57.912Z,20
2017-08-02T06:54:57.317Z,20
2017-08-02T06:55:57.964Z,20
2017-08-02T06:56:58.452Z,25
2017-08-02T06:57:58.342Z,25
2017-08-02T06:58:57.748Z,20
2017-08-02T06:59:58.076Z,20
2017-08-02T07:00:58.435Z,25
2017-08-02T07:01:58.445Z,25
2017-08-02T07:02:58.473Z,25
2017-08-02T07:03:58.191Z,25
2017-08-02T07:04:57.591Z,25
2017-08-02T07:05:58.564Z,25
2017-08-02T07:06:57.946Z,25
2017-08-02T07:07:58.614Z,25
2017-08-02T07:08:58.644Z,25
2017-08-02T07:09:58.351Z,25
2017-08-02T07:10:58.696Z,25
2017-08-02T07:11:58.403Z,25
2017-08-02T07:12:58.453Z,25
2017-08-02T07:13:58.772Z,25
2017-08-02T07:14:58.824Z,25
2017-08-02T07:15:58.196Z,25
2017-08-02T07:16:58.534Z,25
2017-08-02T07:17:58.250Z,25
2017-08-02T07:18:58.904Z,25
2017-08-02T07:19:58.935Z,25
2017-08-02T07:20:58.956Z,25
2017-08-02T07:21:58.673Z,20
2017-08-02T07:22:59.020Z,20
2017-08-02T07:23:59.063Z,20
2017-08-02T07:24:59.066Z,20
2017-08-02T07:25:59.099Z,20
2017-08-02T07:26:58.872Z,20
2017-08-02T07:27:58.841Z,20
2017-08-02T07:28:58.861Z,20
2017-08-02T07:29:58.922Z,20
2017-08-02T07:30:59.227Z,15
2017-08-02T07:31:59.678Z,15
2017-08-02T07:32:58.971Z,15
2017-08-02T07:33:59.107Z,15
2017-08-02T07:34:59.020Z,15
2017-08-02T07:35:58.748Z,15
2017-08-02T07:36:59.124Z,15
2017-08-02T07:37:59.114Z,15
2017-08-02T07:38:59.137Z,15
2017-08-02T07:39:58.522Z,15
2017-08-02T07:40:59.632Z,15
2017-08-02T07:41:59.617Z,15
2017-08-02T07:42:58.617Z,15
2017-08-02T07:43:58.952Z,15
2017-08-02T07:44:59.609Z,15
2017-08-02T07:45:59.444Z,15
2017-08-02T07:46:59.125Z,15
2017-08-02T07:47:59.702Z,15
2017-08-02T07:48:59.734Z,10
2017-08-02T07:49:59.744Z,10
2017-08-02T07:50:59.151Z,10
2017-08-02T07:51:59.804Z,10
2017-08-02T07:52:59.833Z,15
2017-08-02T07:53:59.857Z,20
2017-08-02T07:54:59.895Z,25
2017-08-02T07:55:59.593Z,25
2017-08-02T07:56:59.943Z,25
2017-08-02T07:57:59.651Z,25
2017-08-02T07:58:59.678Z,30
2017-08-02T07:59:59.721Z,30
2017-08-02T08:00:59.416Z,35
2017-08-02T08:02:00.080Z,30
2017-08-02T08:03:00.112Z,20
2017-08-02T08:03:59.817Z,20
2017-08-02T08:04:59.851Z,15
2017-08-02T08:06:00.188Z,15
2017-08-02T08:07:00.241Z,15
2017-08-02T08:07:59.924Z,15
2017-08-02T08:09:00.268Z,15
2017-08-02T08:09:59.995Z,15
2017-08-02T08:11:00.329Z,20
2017-08-02T08:12:00.046Z,20
2017-08-02T08:13:00.384Z,20
2017-08-02T08:14:00.099Z,20
2017-08-02T08:15:00.440Z,25
2017-08-02T08:16:00.147Z,30
2017-08-02T08:17:00.169Z,30
2017-08-02T08:18:00.531Z,25
2017-08-02T08:19:00.235Z,25
2017-08-02T08:20:00.573Z,20
2017-08-02T08:21:00.383Z,25
2017-08-02T08:22:00.627Z,30
2017-08-02T08:23:00.022Z,30
2017-08-02T08:24:00.686Z,25
2017-08-02T08:25:00.732Z,25
2017-08-02T08:26:00.753Z,25
2017-08-02T08:27:00.773Z,30
2017-08-02T08:28:00.798Z,30
2017-08-02T08:29:00.509Z,25
2017-08-02T08:30:00.869Z,30
2017-08-02T08:31:00.684Z,30
2017-08-02T08:32:00.714Z,20
2017-08-02T08:33:00.730Z,15
2017-08-02T08:34:00.967Z,15
2017-08-02T08:35:01.013Z,15
2017-08-02T08:36:01.035Z,15
2017-08-02T08:37:00.098Z,15
2017-08-02T08:38:00.921Z,15
2017-08-02T08:39:00.921Z,15
2017-08-02T08:40:00.830Z,15
2017-08-02T08:41:01.157Z,20
2017-08-02T08:42:00.875Z,20
2017-08-02T08:43:00.590Z,20
2017-08-02T08:44:01.267Z,20
2017-08-02T08:45:01.281Z,20
2017-08-02T08:46:01.311Z,20
2017-08-02T08:47:00.703Z,15
2017-08-02T08:48:01.042Z,15
2017-08-02T08:49:01.070Z,20
2017-08-02T08:50:01.539Z,20
2017-08-02T08:51:00.937Z,20
2017-08-02T08:52:01.152Z,15
2017-08-02T08:53:01.509Z,20
2017-08-02T08:54:01.213Z,20
2017-08-02T08:55:00.940Z,15
2017-08-02T08:56:01.262Z,20
2017-08-02T08:57:01.603Z,20
2017-08-02T08:58:01.364Z,25
2017-08-02T08:59:01.345Z,30
2017-08-02T09:00:01.386Z,30
2017-08-02T09:01:01.092Z,30
2017-08-02T09:02:00.813Z,20
2017-08-02T09:03:01.464Z,15
2017-08-02T09:04:01.181Z,25
2017-08-02T09:05:01.520Z,25
2017-08-02T09:06:01.862Z,25
2017-08-02T09:07:01.891Z,30
2017-08-02T09:08:01.923Z,25
2017-08-02T09:09:01.343Z,30
2017-08-02T09:10:01.660Z,35
2017-08-02T09:11:02.016Z,40
2017-08-02T09:12:02.032Z,45
2017-08-02T09:13:02.066Z,50
2017-08-02T09:14:01.781Z,50
2017-08-02T09:15:01.496Z,45
2017-08-02T09:16:01.860Z,40
2017-08-02T09:17:01.860Z,45
2017-08-02T09:18:02.011Z,50
2017-08-02T09:19:02.244Z,45
2017-08-02T09:20:02.264Z,40
2017-08-02T09:21:01.975Z,40
2017-08-02T09:22:01.711Z,40
2017-08-02T09:23:02.042Z,40
2017-08-02T09:24:01.751Z,45
2017-08-02T09:25:02.422Z,50
2017-08-02T09:26:02.432Z,40
2017-08-02T09:27:02.505Z,30
2017-08-02T09:28:02.527Z,30
2017-08-02T09:29:02.211Z,35
2017-08-02T09:30:02.606Z,40
2017-08-02T09:31:02.266Z,35
2017-08-02T09:32:02.795Z,35
2017-08-02T09:33:02.106Z,40
2017-08-02T09:34:02.486Z,40
2017-08-02T09:35:02.701Z,40
2017-08-02T09:36:02.411Z,40
2017-08-02T09:37:02.754Z,45
2017-08-02T09:38:02.804Z,40
2017-08-02T09:39:02.577Z,35
2017-08-02T09:40:02.230Z,35
2017-08-02T09:41:02.554Z,40
2017-08-02T09:42:02.720Z,40
2017-08-02T09:43:02.617Z,30
2017-08-02T09:44:02.644Z,30
2017-08-02T09:45:02.984Z,45
2017-08-02T09:46:02.722Z,45
2017-08-02T09:47:02.743Z,40
2017-08-02T09:48:02.955Z,25
2017-08-02T09:49:03.109Z,30
2017-08-02T09:50:02.829Z,35
2017-08-02T09:51:03.175Z,35
2017-08-02T09:52:03.354Z,25
2017-08-02T09:53:03.045Z,20
2017-08-02T09:54:03.455Z,25
2017-08-02T09:55:03.395Z,20
2017-08-02T09:56:02.787Z,30
2017-08-02T09:57:03.093Z,30
2017-08-02T09:58:03.065Z,30
2017-08-02T09:59:02.471Z,30
2017-08-02T10:00:03.127Z,25
2017-08-02T10:01:03.474Z,30
2017-08-02T10:02:03.508Z,35
2017-08-02T10:03:02.973Z,30
2017-08-02T10:04:03.573Z,30
2017-08-02T10:05:03.603Z,35
2017-08-02T10:06:03.625Z,40
2017-08-02T10:07:03.654Z,35
2017-08-02T10:08:03.690Z,45
2017-08-02T10:09:03.710Z,50
2017-08-02T10:10:03.779Z,55
2017-08-02T10:11:03.769Z,60
2017-08-02T10:12:04.011Z,50
2017-08-02T10:13:03.831Z,35
2017-08-02T10:14:03.869Z,25
2017-08-02T10:15:03.604Z,30
2017-08-02T10:16:03.710Z,30
2017-08-02T10:17:03.629Z,35
2017-08-02T10:18:03.987Z,50
2017-08-02T10:19:03.708Z,60
2017-08-02T10:20:03.730Z,60
2017-08-02T10:21:03.764Z,55
2017-08-02T10:22:04.113Z,35
2017-08-02T10:23:04.150Z,25
2017-08-02T10:24:04.350Z,25
2017-08-02T10:25:03.889Z,25
2017-08-02T10:26:04.354Z,30
2017-08-02T10:27:04.254Z,35
2017-08-02T10:28:03.986Z,30
2017-08-02T10:29:04.397Z,30
2017-08-02T10:30:04.482Z,35
2017-08-02T10:31:04.392Z,30
2017-08-02T10:32:04.132Z,35
2017-08-02T10:33:04.525Z,30
2017-08-02T10:34:03.530Z,35
2017-08-02T10:35:03.875Z,50
2017-08-02T10:36:04.537Z,45
2017-08-02T10:37:04.663Z,35
2017-08-02T10:38:04.552Z,30
2017-08-02T10:39:04.509Z,35
2017-08-02T10:40:04.990Z,35
2017-08-02T10:41:04.831Z,20
2017-08-02T10:42:04.754Z,25
2017-08-02T10:43:04.836Z,45
2017-08-02T10:44:04.490Z,55
2017-08-02T10:45:05.025Z,65
2017-08-02T10:46:05.020Z,70
2017-08-02T10:47:04.692Z,55
2017-08-02T10:48:04.921Z,50
2017-08-02T10:49:05.069Z,50
2017-08-02T10:50:04.873Z,55
2017-08-02T10:51:05.004Z,45
2017-08-02T10:52:05.048Z,40
2017-08-02T10:53:05.072Z,45
2017-08-02T10:54:04.926Z,40
2017-08-02T10:55:04.813Z,40
2017-08-02T10:56:05.173Z,40
2017-08-02T10:57:05.197Z,35
2017-08-02T10:58:04.943Z,35
2017-08-02T10:59:05.289Z,35
2017-08-02T11:00:05.121Z,30
2017-08-02T11:01:04.690Z,45
2017-08-02T11:02:05.065Z,45
2017-08-02T11:03:05.570Z,40
2017-08-02T11:04:05.432Z,40
2017-08-02T11:05:05.464Z,50
2017-08-02T11:06:05.184Z,60
2017-08-02T11:07:05.524Z,50
2017-08-02T11:08:05.746Z,40
2017-08-02T11:09:05.269Z,45
2017-08-02T11:10:05.128Z,45
2017-08-02T11:11:05.333Z,40
2017-08-02T11:12:05.052Z,35
2017-08-02T11:13:05.395Z,40
2017-08-02T11:14:05.888Z,40
2017-08-02T11:15:05.231Z,40
2017-08-02T11:16:05.291Z,40
2017-08-02T11:17:05.932Z,40
2017-08-02T11:18:05.576Z,35
2017-08-02T11:19:05.907Z,35
2017-08-02T11:20:05.349Z,35
2017-08-02T11:21:05.657Z,35
2017-08-02T11:22:05.380Z,40
2017-08-02T11:23:05.805Z,40
2017-08-02T11:24:06.072Z,25
2017-08-02T11:25:05.791Z,45
2017-08-02T11:26:05.857Z,45
2017-08-02T11:27:06.169Z,45
2017-08-02T11:28:05.887Z,30
2017-08-02T11:29:06.234Z,50
2017-08-02T11:30:05.951Z,55
2017-08-02T11:31:05.987Z,40
2017-08-02T11:32:05.782Z,55
2017-08-02T11:33:06.370Z,65
2017-08-02T11:34:06.399Z,75
2017-08-02T11:35:06.638Z,50
2017-08-02T11:36:06.603Z,35
2017-08-02T11:37:06.187Z,25
2017-08-02T11:38:06.530Z,20
2017-08-02T11:39:05.980Z,30
2017-08-02T11:40:06.599Z,30
2017-08-02T11:41:06.458Z,35
2017-08-02T11:42:06.652Z,40
2017-08-02T11:43:06.372Z,60
2017-08-02T11:44:06.857Z,45
2017-08-02T11:45:06.852Z,70
2017-08-02T11:46:06.237Z,65
2017-08-02T11:47:06.705Z,80
2017-08-02T11:48:07.051Z,60
2017-08-02T11:49:06.714Z,40
2017-08-02T11:50:06.934Z,65
2017-08-02T11:51:06.649Z,60
2017-08-02T11:52:06.986Z,45
2017-08-02T11:53:06.935Z,35
2017-08-02T11:54:07.059Z,20
2017-08-02T11:55:06.771Z,20
2017-08-02T11:56:07.132Z,25
2017-08-02T11:57:07.229Z,30
2017-08-02T11:58:06.734Z,35
2017-08-02T11:59:07.250Z,30
2017-08-02T12:00:06.625Z,35
2017-08-02T12:01:07.286Z,55
2017-08-02T12:02:07.322Z,65
2017-08-02T12:03:07.360Z,70
2017-08-02T12:04:07.442Z,60
2017-08-02T12:05:07.422Z,40
2017-08-02T12:06:07.468Z,35
2017-08-02T12:07:07.502Z,45
2017-08-02T12:08:07.515Z,85
2017-08-02T12:09:07.247Z,80
2017-08-02T12:10:07.029Z,80
2017-08-02T12:11:07.723Z,85
2017-08-02T12:12:07.672Z,60
2017-08-02T12:13:07.751Z,55
2017-08-02T12:14:07.826Z,50
2017-08-02T12:15:07.761Z,55
2017-08-02T12:16:08.047Z,40
2017-08-02T12:17:07.193Z,40
2017-08-02T12:18:07.548Z,35
2017-08-02T12:19:07.578Z,25
2017-08-02T12:20:07.611Z,20
2017-08-02T12:21:08.052Z,20
2017-08-02T12:22:08.001Z,25
2017-08-02T12:23:07.793Z,25
2017-08-02T12:24:08.260Z,25
2017-08-02T12:25:07.842Z,25
2017-08-02T12:26:08.126Z,25
2017-08-02T12:27:08.291Z,40
2017-08-02T12:28:07.902Z,45
2017-08-02T12:29:08.354Z,40
2017-08-02T12:30:08.394Z,65
2017-08-02T12:31:08.411Z,95
2017-08-02T12:32:08.340Z,90
2017-08-02T12:33:08.395Z,60
2017-08-02T12:34:08.435Z,55
2017-08-02T12:35:08.331Z,50
2017-08-02T12:36:08.173Z,60
2017-08-02T12:37:08.553Z,85
2017-08-02T12:38:08.667Z,70
2017-08-02T12:39:08.692Z,70
2017-08-02T12:40:08.610Z,60
2017-08-02T12:41:08.450Z,65
2017-08-02T12:42:08.688Z,60
2017-08-02T12:43:08.812Z,55
2017-08-02T12:44:08.434Z,60
2017-08-02T12:45:08.857Z,60
2017-08-02T12:46:08.538Z,55
2017-08-02T12:47:08.538Z,60
2017-08-02T12:48:08.252Z,70
2017-08-02T12:49:08.923Z,65
2017-08-02T12:50:08.737Z,85
2017-08-02T12:51:08.677Z,85
2017-08-02T12:52:08.391Z,80
2017-08-02T12:53:09.070Z,75
2017-08-02T12:54:08.771Z,90
2017-08-02T12:55:08.931Z,90
2017-08-02T12:56:08.926Z,75
2017-08-02T12:57:09.013Z,80
2017-08-02T12:58:08.767Z,75
2017-08-02T12:59:08.797Z,75
2017-08-02T13:00:09.417Z,95
2017-08-02T13:01:09.341Z,80
2017-08-02T13:02:09.392Z,55
2017-08-02T13:03:08.878Z,40
2017-08-02T13:04:08.809Z,25
2017-08-02T13:05:09.653Z,25
2017-08-02T13:06:09.241Z,20
2017-08-02T13:07:08.998Z,20
2017-08-02T13:08:09.339Z,20
2017-08-02T13:09:09.604Z,15
2017-08-02T13:10:09.607Z,25
2017-08-02T13:11:09.369Z,65
2017-08-02T13:12:09.104Z,90
2017-08-02T13:13:09.852Z,115
2017-08-02T13:14:09.884Z,90
2017-08-02T13:15:09.587Z,90
2017-08-02T13:16:09.861Z,95
2017-08-02T13:17:09.891Z,85
2017-08-02T13:18:09.397Z,85
2017-08-02T13:19:09.646Z,90
2017-08-02T13:20:09.675Z,75
2017-08-02T13:21:09.391Z,60
2017-08-02T13:22:09.844Z,45
2017-08-02T13:23:10.191Z,55
2017-08-02T13:24:10.121Z,60
2017-08-02T13:25:10.170Z,40
2017-08-02T13:26:10.226Z,40
2017-08-02T13:27:09.913Z,50
2017-08-02T13:28:10.161Z,55
2017-08-02T13:29:10.001Z,45
2017-08-02T13:30:10.017Z,40
2017-08-02T13:31:10.049Z,25
2017-08-02T13:32:10.197Z,30
2017-08-02T13:33:10.449Z,35
2017-08-02T13:34:10.162Z,30
2017-08-02T13:35:10.513Z,40
2017-08-02T13:36:10.391Z,40
2017-08-02T13:37:09.770Z,35
2017-08-02T13:38:10.317Z,30
2017-08-02T13:39:10.657Z,35
2017-08-02T13:40:10.077Z,35
2017-08-02T13:41:10.399Z,40
2017-08-02T13:42:10.753Z,40
2017-08-02T13:43:10.911Z,30
2017-08-02T13:44:10.835Z,25
2017-08-02T13:45:10.662Z,30
2017-08-02T13:46:10.645Z,40
2017-08-02T13:47:11.042Z,50
2017-08-02T13:48:10.966Z,45
2017-08-02T13:49:10.364Z,45
2017-08-02T13:50:10.836Z,40
2017-08-02T13:51:10.880Z,45
2017-08-02T13:52:10.597Z,65
2017-08-02T13:53:11.130Z,65
2017-08-02T13:54:10.887Z,55
2017-08-02T13:55:11.212Z,45
2017-08-02T13:56:11.236Z,40
2017-08-02T13:57:10.980Z,35
2017-08-02T13:58:11.318Z,35
2017-08-02T13:59:11.497Z,40
2017-08-02T14:00:11.067Z,50
2017-08-02T14:01:11.420Z,65
2017-08-02T14:02:11.323Z,85
2017-08-02T14:03:11.176Z,90
2017-08-02T14:04:11.322Z,95
2017-08-02T14:05:11.330Z,100
2017-08-02T14:06:11.492Z,95
2017-08-02T14:07:10.995Z,85
2017-08-02T14:08:11.718Z,85
2017-08-02T14:09:11.601Z,80
2017-08-02T14:10:11.743Z,70
2017-08-02T14:11:11.318Z,70
2017-08-02T14:12:12.009Z,85
2017-08-02T14:13:11.516Z,85
2017-08-02T14:14:11.236Z,80
2017-08-02T14:15:11.906Z,90
2017-08-02T14:16:11.412Z,90
2017-08-02T14:17:11.973Z,85
2017-08-02T14:18:11.835Z,80
2017-08-02T14:19:11.827Z,70
2017-08-02T14:20:11.880Z,85
2017-08-02T14:21:11.801Z,80
2017-08-02T14:22:11.831Z,75
2017-08-02T14:23:11.873Z,80
2017-08-02T14:24:11.595Z,80
2017-08-02T14:25:12.252Z,75
2017-08-02T14:26:12.286Z,75
2017-08-02T14:27:12.096Z,65
2017-08-02T14:28:12.387Z,60